KCPK

Chesapeake Regional Airport

Norfolk, Virginia, USA
METAR KCPK 151335Z AUTO 00000KT 10SM CLR 02/M01 A3001 RMK AO2 T00241010
Observed Flight Rules
Dec-15 @ 13:35 UTC (27 minutes ago) Visual Flight Rules
Wind Visibility Clouds
Calm 10 miles
  • Clear skies
Temperatures Readings
Current 2°C / 36°F
Dewpoint -1°C / 30°F
Humidity 81%
Altimeter 30.01" Hg
Pressure 1016 hPa
Elevation 6
METAR KCPK 151335Z AUTO 00000KT 10SM CLR 02/M01 A3001 RMK AO2 T00241010
Observed Flight Rules
Dec-15 @ 13:35 UTC
(27 minutes ago)
VFR
Wind Visibility
Calm 10 miles
Clouds
  • Clear skies
Temperature Dewpoint
2°C / 36°F -1°C / 30°F
Humidity Altimeter Pressure
81% 30.01" Hg 1016 hPa